sensor_id;sensor_type;location;lat;lon;timestamp;temperature;humidity
26505;DHT22;19493;48.042;7.584;2023-07-13T00:01:39;19.90;99.90
26505;DHT22;19493;48.042;7.584;2023-07-13T00:04:05;19.90;99.90
26505;DHT22;19493;48.042;7.584;2023-07-13T00:06:31;19.90;99.90
26505;DHT22;19493;48.042;7.584;2023-07-13T00:08:59;19.90;99.90
26505;DHT22;19493;48.042;7.584;2023-07-13T00:11:24;19.90;99.90
26505;DHT22;19493;48.042;7.584;2023-07-13T00:13:51;19.90;99.90
26505;DHT22;19493;48.042;7.584;2023-07-13T00:16:16;19.80;99.90
26505;DHT22;19493;48.042;7.584;2023-07-13T00:18:44;19.80;99.90
26505;DHT22;19493;48.042;7.584;2023-07-13T00:21:10;19.80;99.90
26505;DHT22;19493;48.042;7.584;2023-07-13T00:23:37;19.80;99.90
26505;DHT22;19493;48.042;7.584;2023-07-13T00:26:05;19.80;99.90
26505;DHT22;19493;48.042;7.584;2023-07-13T00:28:31;19.90;99.90
26505;DHT22;19493;48.042;7.584;2023-07-13T00:30:56;19.90;99.90
26505;DHT22;19493;48.042;7.584;2023-07-13T00:33:22;19.90;99.90
26505;DHT22;19493;48.042;7.584;2023-07-13T00:35:48;20.00;99.90
26505;DHT22;19493;48.042;7.584;2023-07-13T00:38:14;20.00;99.90
26505;DHT22;19493;48.042;7.584;2023-07-13T00:40:39;20.00;99.90
26505;DHT22;19493;48.042;7.584;2023-07-13T00:43:18;20.00;99.90
26505;DHT22;19493;48.042;7.584;2023-07-13T00:48:15;20.00;99.90
26505;DHT22;19493;48.042;7.584;2023-07-13T00:50:42;20.00;99.90
26505;DHT22;19493;48.042;7.584;2023-07-13T00:53:09;19.90;99.90
26505;DHT22;19493;48.042;7.584;2023-07-13T00:55:37;19.90;99.90
26505;DHT22;19493;48.042;7.584;2023-07-13T00:58:03;19.90;99.90
26505;DHT22;19493;48.042;7.584;2023-07-13T01:00:30;19.90;99.90
26505;DHT22;19493;48.042;7.584;2023-07-13T01:02:57;19.90;99.90
26505;DHT22;19493;48.042;7.584;2023-07-13T01:05:23;19.80;99.90
26505;DHT22;19493;48.042;7.584;2023-07-13T01:07:51;19.80;99.90
26505;DHT22;19493;48.042;7.584;2023-07-13T01:10:19;19.80;99.90
26505;DHT22;19493;48.042;7.584;2023-07-13T01:12:46;19.70;99.90
26505;DHT22;19493;48.042;7.584;2023-07-13T01:17:59;19.60;99.90
26505;DHT22;19493;48.042;7.584;2023-07-13T01:20:24;19.60;99.90
26505;DHT22;19493;48.042;7.584;2023-07-13T01:22:50;19.60;99.90
26505;DHT22;19493;48.042;7.584;2023-07-13T01:25:16;19.60;99.90
26505;DHT22;19493;48.042;7.584;2023-07-13T01:27:41;19.60;99.90
26505;DHT22;19493;48.042;7.584;2023-07-13T01:30:07;19.50;99.90
26505;DHT22;19493;48.042;7.584;2023-07-13T01:32:33;19.60;99.90
26505;DHT22;19493;48.042;7.584;2023-07-13T01:34:59;19.60;99.90
26505;DHT22;19493;48.042;7.584;2023-07-13T01:37:26;19.60;99.90
26505;DHT22;19493;48.042;7.584;2023-07-13T01:39:52;19.60;99.90
26505;DHT22;19493;48.042;7.584;2023-07-13T01:42:17;19.60;99.90
26505;DHT22;19493;48.042;7.584;2023-07-13T01:44:43;19.60;99.90
26505;DHT22;19493;48.042;7.584;2023-07-13T01:47:09;19.50;99.90
26505;DHT22;19493;48.042;7.584;2023-07-13T01:49:35;19.50;99.90
26505;DHT22;19493;48.042;7.584;2023-07-13T01:52:00;19.50;99.90
26505;DHT22;19493;48.042;7.584;2023-07-13T01:54:26;19.50;99.90
26505;DHT22;19493;48.042;7.584;2023-07-13T01:56:51;19.50;99.90
26505;DHT22;19493;48.042;7.584;2023-07-13T01:59:17;19.50;99.90
26505;DHT22;19493;48.042;7.584;2023-07-13T02:01:42;19.50;99.90
26505;DHT22;19493;48.042;7.584;2023-07-13T02:04:08;19.50;99.90
26505;DHT22;19493;48.042;7.584;2023-07-13T02:06:33;19.40;99.90
26505;DHT22;19493;48.042;7.584;2023-07-13T02:08:59;19.40;99.90
26505;DHT22;19493;48.042;7.584;2023-07-13T02:11:25;19.30;99.90
26505;DHT22;19493;48.042;7.584;2023-07-13T02:13:58;19.20;99.90
26505;DHT22;19493;48.042;7.584;2023-07-13T02:16:24;19.20;99.90
26505;DHT22;19493;48.042;7.584;2023-07-13T02:18:49;19.10;99.90
26505;DHT22;19493;48.042;7.584;2023-07-13T02:21:17;19.00;99.90
26505;DHT22;19493;48.042;7.584;2023-07-13T02:23:43;18.90;99.90
26505;DHT22;19493;48.042;7.584;2023-07-13T02:26:09;18.90;99.90
26505;DHT22;19493;48.042;7.584;2023-07-13T02:28:35;18.90;99.90
26505;DHT22;19493;48.042;7.584;2023-07-13T02:31:08;18.80;99.90
26505;DHT22;19493;48.042;7.584;2023-07-13T02:33:34;18.80;99.90
26505;DHT22;19493;48.042;7.584;2023-07-13T02:35:59;18.80;99.90
26505;DHT22;19493;48.042;7.584;2023-07-13T02:38:25;18.80;99.90
26505;DHT22;19493;48.042;7.584;2023-07-13T02:40:51;18.80;99.90
26505;DHT22;19493;48.042;7.584;2023-07-13T02:43:16;18.80;99.90
26505;DHT22;19493;48.042;7.584;2023-07-13T02:45:46;18.80;99.90
26505;DHT22;19493;48.042;7.584;2023-07-13T02:48:13;18.80;99.90
26505;DHT22;19493;48.042;7.584;2023-07-13T02:50:39;18.80;99.90
26505;DHT22;19493;48.042;7.584;2023-07-13T02:53:05;18.70;99.90
26505;DHT22;19493;48.042;7.584;2023-07-13T02:55:30;18.70;99.90
26505;DHT22;19493;48.042;7.584;2023-07-13T02:57:56;18.60;99.90
26505;DHT22;19493;48.042;7.584;2023-07-13T03:00:22;18.60;99.90
26505;DHT22;19493;48.042;7.584;2023-07-13T03:02:48;18.50;99.90
26505;DHT22;19493;48.042;7.584;2023-07-13T03:05:13;18.50;99.90
26505;DHT22;19493;48.042;7.584;2023-07-13T03:07:40;18.50;99.90
26505;DHT22;19493;48.042;7.584;2023-07-13T03:10:06;18.50;99.90
26505;DHT22;19493;48.042;7.584;2023-07-13T03:12:32;18.50;99.90
26505;DHT22;19493;48.042;7.584;2023-07-13T03:14:58;18.50;99.90
26505;DHT22;19493;48.042;7.584;2023-07-13T03:17:23;18.40;99.90
26505;DHT22;19493;48.042;7.584;2023-07-13T03:19:49;18.40;99.90
26505;DHT22;19493;48.042;7.584;2023-07-13T03:22:19;18.40;99.90
26505;DHT22;19493;48.042;7.584;2023-07-13T03:24:45;18.30;99.90
26505;DHT22;19493;48.042;7.584;2023-07-13T03:27:11;18.20;99.90
26505;DHT22;19493;48.042;7.584;2023-07-13T03:29:37;18.20;99.90
26505;DHT22;19493;48.042;7.584;2023-07-13T03:32:02;18.20;99.90
26505;DHT22;19493;48.042;7.584;2023-07-13T03:34:30;18.20;99.90
26505;DHT22;19493;48.042;7.584;2023-07-13T03:36:55;18.10;99.90
26505;DHT22;19493;48.042;7.584;2023-07-13T03:39:21;18.10;99.90
26505;DHT22;19493;48.042;7.584;2023-07-13T03:41:47;18.10;99.90
26505;DHT22;19493;48.042;7.584;2023-07-13T03:44:12;18.00;99.90
26505;DHT22;19493;48.042;7.584;2023-07-13T03:46:38;18.00;99.90
26505;DHT22;19493;48.042;7.584;2023-07-13T03:49:04;18.00;99.90
26505;DHT22;19493;48.042;7.584;2023-07-13T03:51:30;18.00;99.90
26505;DHT22;19493;48.042;7.584;2023-07-13T03:53:56;18.00;99.90
26505;DHT22;19493;48.042;7.584;2023-07-13T03:56:22;18.00;99.90
26505;DHT22;19493;48.042;7.584;2023-07-13T03:58:49;18.00;99.90
26505;DHT22;19493;48.042;7.584;2023-07-13T04:01:17;18.00;99.90
26505;DHT22;19493;48.042;7.584;2023-07-13T04:03:43;18.00;99.90
26505;DHT22;19493;48.042;7.584;2023-07-13T04:06:20;18.00;99.90
26505;DHT22;19493;48.042;7.584;2023-07-13T04:09:00;18.00;99.90
26505;DHT22;19493;48.042;7.584;2023-07-13T04:11:31;18.00;99.90
26505;DHT22;19493;48.042;7.584;2023-07-13T04:13:58;18.00;99.90
26505;DHT22;19493;48.042;7.584;2023-07-13T04:16:24;18.00;99.90
26505;DHT22;19493;48.042;7.584;2023-07-13T04:18:51;18.00;99.90
26505;DHT22;19493;48.042;7.584;2023-07-13T04:21:20;18.00;99.90
26505;DHT22;19493;48.042;7.584;2023-07-13T04:23:45;18.00;99.90
26505;DHT22;19493;48.042;7.584;2023-07-13T04:26:11;18.10;99.90
26505;DHT22;19493;48.042;7.584;2023-07-13T04:28:37;18.00;99.90
26505;DHT22;19493;48.042;7.584;2023-07-13T04:31:02;18.10;99.90
26505;DHT22;19493;48.042;7.584;2023-07-13T04:33:28;18.00;99.90
26505;DHT22;19493;48.042;7.584;2023-07-13T04:35:55;18.00;99.90
26505;DHT22;19493;48.042;7.584;2023-07-13T04:38:27;18.00;99.90
26505;DHT22;19493;48.042;7.584;2023-07-13T04:40:58;18.00;99.90
26505;DHT22;19493;48.042;7.584;2023-07-13T04:43:24;17.90;99.90
26505;DHT22;19493;48.042;7.584;2023-07-13T04:45:51;17.90;99.90
26505;DHT22;19493;48.042;7.584;2023-07-13T04:48:17;17.90;99.90
26505;DHT22;19493;48.042;7.584;2023-07-13T04:50:42;17.90;99.90
26505;DHT22;19493;48.042;7.584;2023-07-13T04:53:09;17.90;99.90
26505;DHT22;19493;48.042;7.584;2023-07-13T04:55:36;17.90;99.90
26505;DHT22;19493;48.042;7.584;2023-07-13T04:58:02;17.80;99.90
26505;DHT22;19493;48.042;7.584;2023-07-13T05:00:29;17.80;99.90
26505;DHT22;19493;48.042;7.584;2023-07-13T05:02:56;17.80;99.90
26505;DHT22;19493;48.042;7.584;2023-07-13T05:05:23;17.80;99.90
26505;DHT22;19493;48.042;7.584;2023-07-13T05:07:48;17.80;99.90
26505;DHT22;19493;48.042;7.584;2023-07-13T05:10:14;17.90;99.90
26505;DHT22;19493;48.042;7.584;2023-07-13T05:12:40;18.00;99.90
26505;DHT22;19493;48.042;7.584;2023-07-13T05:15:06;18.20;99.90
26505;DHT22;19493;48.042;7.584;2023-07-13T05:17:31;18.50;99.90
26505;DHT22;19493;48.042;7.584;2023-07-13T05:19:57;18.70;99.90
26505;DHT22;19493;48.042;7.584;2023-07-13T05:22:22;18.90;99.90
26505;DHT22;19493;48.042;7.584;2023-07-13T05:24:48;19.10;99.90
26505;DHT22;19493;48.042;7.584;2023-07-13T05:27:13;19.30;99.90
26505;DHT22;19493;48.042;7.584;2023-07-13T05:29:39;19.50;99.90
26505;DHT22;19493;48.042;7.584;2023-07-13T05:32:05;19.70;99.90
26505;DHT22;19493;48.042;7.584;2023-07-13T05:34:30;20.00;99.90
26505;DHT22;19493;48.042;7.584;2023-07-13T05:36:56;20.20;99.90
26505;DHT22;19493;48.042;7.584;2023-07-13T05:39:22;20.30;99.90
26505;DHT22;19493;48.042;7.584;2023-07-13T05:41:47;20.50;99.90
26505;DHT22;19493;48.042;7.584;2023-07-13T05:44:13;20.60;99.90
26505;DHT22;19493;48.042;7.584;2023-07-13T05:46:38;20.80;99.90
26505;DHT22;19493;48.042;7.584;2023-07-13T05:49:04;21.00;99.90
26505;DHT22;19493;48.042;7.584;2023-07-13T05:51:29;21.00;99.90
26505;DHT22;19493;48.042;7.584;2023-07-13T05:53:55;21.20;99.90
26505;DHT22;19493;48.042;7.584;2023-07-13T05:56:21;21.30;99.90
26505;DHT22;19493;48.042;7.584;2023-07-13T05:58:48;21.30;99.90
26505;DHT22;19493;48.042;7.584;2023-07-13T06:01:15;21.30;99.90
26505;DHT22;19493;48.042;7.584;2023-07-13T06:03:40;21.20;99.90
26505;DHT22;19493;48.042;7.584;2023-07-13T06:06:08;21.20;99.90
26505;DHT22;19493;48.042;7.584;2023-07-13T06:08:35;21.20;99.90
26505;DHT22;19493;48.042;7.584;2023-07-13T06:11:07;21.30;99.90
26505;DHT22;19493;48.042;7.584;2023-07-13T06:13:33;21.40;99.90
26505;DHT22;19493;48.042;7.584;2023-07-13T06:15:59;21.70;99.90
26505;DHT22;19493;48.042;7.584;2023-07-13T06:18:25;22.00;99.90
26505;DHT22;19493;48.042;7.584;2023-07-13T06:20:50;22.10;99.90
26505;DHT22;19493;48.042;7.584;2023-07-13T06:23:16;22.10;99.90
26505;DHT22;19493;48.042;7.584;2023-07-13T06:25:43;22.00;99.90
26505;DHT22;19493;48.042;7.584;2023-07-13T06:28:08;22.00;99.90
26505;DHT22;19493;48.042;7.584;2023-07-13T06:30:34;21.80;99.90
26505;DHT22;19493;48.042;7.584;2023-07-13T06:33:00;21.60;99.90
26505;DHT22;19493;48.042;7.584;2023-07-13T06:35:25;21.60;99.90
26505;DHT22;19493;48.042;7.584;2023-07-13T06:37:51;21.60;99.90
26505;DHT22;19493;48.042;7.584;2023-07-13T06:40:16;21.60;99.90
26505;DHT22;19493;48.042;7.584;2023-07-13T06:42:42;21.60;99.90
26505;DHT22;19493;48.042;7.584;2023-07-13T06:45:08;21.60;99.90
26505;DHT22;19493;48.042;7.584;2023-07-13T06:47:34;21.60;99.90
26505;DHT22;19493;48.042;7.584;2023-07-13T06:50:00;21.60;99.90
26505;DHT22;19493;48.042;7.584;2023-07-13T06:52:25;21.70;99.90
26505;DHT22;19493;48.042;7.584;2023-07-13T06:54:51;21.80;99.90
26505;DHT22;19493;48.042;7.584;2023-07-13T06:57:16;21.90;99.90
26505;DHT22;19493;48.042;7.584;2023-07-13T06:59:42;22.00;99.90
26505;DHT22;19493;48.042;7.584;2023-07-13T07:02:10;22.10;99.90
26505;DHT22;19493;48.042;7.584;2023-07-13T07:04:35;22.20;99.90
26505;DHT22;19493;48.042;7.584;2023-07-13T07:07:01;22.40;99.90
26505;DHT22;19493;48.042;7.584;2023-07-13T07:09:26;22.40;99.90
26505;DHT22;19493;48.042;7.584;2023-07-13T07:11:52;22.50;99.90
26505;DHT22;19493;48.042;7.584;2023-07-13T07:14:18;22.50;99.90
26505;DHT22;19493;48.042;7.584;2023-07-13T07:16:43;22.50;99.90
26505;DHT22;19493;48.042;7.584;2023-07-13T07:19:09;22.40;99.90
26505;DHT22;19493;48.042;7.584;2023-07-13T07:21:34;22.50;99.90
26505;DHT22;19493;48.042;7.584;2023-07-13T07:24:00;22.70;99.90
26505;DHT22;19493;48.042;7.584;2023-07-13T07:26:25;22.90;99.90
26505;DHT22;19493;48.042;7.584;2023-07-13T07:28:51;23.10;99.90
26505;DHT22;19493;48.042;7.584;2023-07-13T07:31:17;23.10;99.90
26505;DHT22;19493;48.042;7.584;2023-07-13T07:33:42;23.40;99.90
26505;DHT22;19493;48.042;7.584;2023-07-13T07:36:08;23.70;99.90
26505;DHT22;19493;48.042;7.584;2023-07-13T07:38:33;23.90;99.90
26505;DHT22;19493;48.042;7.584;2023-07-13T07:41:02;24.00;99.90
26505;DHT22;19493;48.042;7.584;2023-07-13T07:43:28;24.10;99.90
26505;DHT22;19493;48.042;7.584;2023-07-13T07:45:53;24.10;99.90
26505;DHT22;19493;48.042;7.584;2023-07-13T07:48:19;24.10;99.90
26505;DHT22;19493;48.042;7.584;2023-07-13T07:50:44;24.20;99.90
26505;DHT22;19493;48.042;7.584;2023-07-13T07:53:10;24.30;99.90
26505;DHT22;19493;48.042;7.584;2023-07-13T07:55:36;24.40;99.90
26505;DHT22;19493;48.042;7.584;2023-07-13T07:58:02;24.50;99.90
26505;DHT22;19493;48.042;7.584;2023-07-13T08:00:27;24.50;99.90
26505;DHT22;19493;48.042;7.584;2023-07-13T08:02:57;24.60;99.90
26505;DHT22;19493;48.042;7.584;2023-07-13T08:05:23;24.60;99.90
26505;DHT22;19493;48.042;7.584;2023-07-13T08:07:48;24.60;99.90
26505;DHT22;19493;48.042;7.584;2023-07-13T08:10:14;24.80;99.90
26505;DHT22;19493;48.042;7.584;2023-07-13T08:12:40;24.70;99.90
26505;DHT22;19493;48.042;7.584;2023-07-13T08:15:09;24.80;99.90
26505;DHT22;19493;48.042;7.584;2023-07-13T08:17:35;24.90;99.90
26505;DHT22;19493;48.042;7.584;2023-07-13T08:20:00;25.10;99.90
26505;DHT22;19493;48.042;7.584;2023-07-13T08:22:27;25.20;99.90
26505;DHT22;19493;48.042;7.584;2023-07-13T08:24:52;25.40;99.90
26505;DHT22;19493;48.042;7.584;2023-07-13T08:27:25;25.40;99.90
26505;DHT22;19493;48.042;7.584;2023-07-13T08:29:51;25.50;99.90
26505;DHT22;19493;48.042;7.584;2023-07-13T08:32:18;25.90;99.90
26505;DHT22;19493;48.042;7.584;2023-07-13T08:34:45;26.20;99.80
26505;DHT22;19493;48.042;7.584;2023-07-13T08:37:10;26.40;97.20
26505;DHT22;19493;48.042;7.584;2023-07-13T08:39:36;26.40;96.90
26505;DHT22;19493;48.042;7.584;2023-07-13T08:42:07;26.30;96.50
26505;DHT22;19493;48.042;7.584;2023-07-13T08:44:57;26.40;95.70
26505;DHT22;19493;48.042;7.584;2023-07-13T08:47:28;26.50;94.80
26505;DHT22;19493;48.042;7.584;2023-07-13T08:49:55;26.50;95.70
26505;DHT22;19493;48.042;7.584;2023-07-13T08:52:42;26.40;94.20
26505;DHT22;19493;48.042;7.584;2023-07-13T08:55:21;26.30;91.30
26505;DHT22;19493;48.042;7.584;2023-07-13T08:57:50;26.40;92.00
26505;DHT22;19493;48.042;7.584;2023-07-13T09:00:18;26.50;91.40
26505;DHT22;19493;48.042;7.584;2023-07-13T09:02:48;26.80;89.80
26505;DHT22;19493;48.042;7.584;2023-07-13T09:05:29;26.90;85.30
26505;DHT22;19493;48.042;7.584;2023-07-13T09:10:56;27.50;82.20
26505;DHT22;19493;48.042;7.584;2023-07-13T09:13:57;28.50;76.30
26505;DHT22;19493;48.042;7.584;2023-07-13T09:18:56;30.80;83.30
26505;DHT22;19493;48.042;7.584;2023-07-13T09:21:34;31.10;64.90
26505;DHT22;19493;48.042;7.584;2023-07-13T09:24:35;31.50;60.60
26505;DHT22;19493;48.042;7.584;2023-07-13T09:32:43;33.20;57.50
26505;DHT22;19493;48.042;7.584;2023-07-13T09:35:12;33.20;55.30
26505;DHT22;19493;48.042;7.584;2023-07-13T09:37:38;33.30;54.20
26505;DHT22;19493;48.042;7.584;2023-07-13T09:40:14;33.30;53.30
26505;DHT22;19493;48.042;7.584;2023-07-13T09:42:43;33.40;50.70
26505;DHT22;19493;48.042;7.584;2023-07-13T09:45:09;33.30;51.10
26505;DHT22;19493;48.042;7.584;2023-07-13T09:47:39;33.10;53.20
26505;DHT22;19493;48.042;7.584;2023-07-13T09:50:16;32.80;49.30
26505;DHT22;19493;48.042;7.584;2023-07-13T09:52:45;32.70;50.40
26505;DHT22;19493;48.042;7.584;2023-07-13T09:55:36;32.80;48.20
26505;DHT22;19493;48.042;7.584;2023-07-13T09:58:04;33.20;49.10
26505;DHT22;19493;48.042;7.584;2023-07-13T10:00:30;33.10;46.20
26505;DHT22;19493;48.042;7.584;2023-07-13T10:03:03;32.90;47.80
26505;DHT22;19493;48.042;7.584;2023-07-13T10:05:38;33.10;47.50
26505;DHT22;19493;48.042;7.584;2023-07-13T10:08:04;33.70;47.10
26505;DHT22;19493;48.042;7.584;2023-07-13T10:10:32;34.00;47.10
26505;DHT22;19493;48.042;7.584;2023-07-13T10:12:58;34.30;47.50
26505;DHT22;19493;48.042;7.584;2023-07-13T10:15:25;34.50;45.90
26505;DHT22;19493;48.042;7.584;2023-07-13T10:17:55;35.00;43.30
26505;DHT22;19493;48.042;7.584;2023-07-13T10:20:23;34.70;44.50
26505;DHT22;19493;48.042;7.584;2023-07-13T10:22:58;34.60;42.40
26505;DHT22;19493;48.042;7.584;2023-07-13T10:25:29;34.70;45.40
26505;DHT22;19493;48.042;7.584;2023-07-13T10:30:47;35.00;43.00
26505;DHT22;19493;48.042;7.584;2023-07-13T10:33:14;35.20;42.60
26505;DHT22;19493;48.042;7.584;2023-07-13T10:35:42;35.80;42.20
26505;DHT22;19493;48.042;7.584;2023-07-13T10:38:14;36.10;41.00
26505;DHT22;19493;48.042;7.584;2023-07-13T10:40:51;34.90;41.30
26505;DHT22;19493;48.042;7.584;2023-07-13T10:43:45;33.20;44.00
26505;DHT22;19493;48.042;7.584;2023-07-13T10:46:14;32.20;44.10
26505;DHT22;19493;48.042;7.584;2023-07-13T10:48:42;31.90;45.30
26505;DHT22;19493;48.042;7.584;2023-07-13T10:51:10;31.80;45.90
26505;DHT22;19493;48.042;7.584;2023-07-13T10:53:38;32.40;45.00
26505;DHT22;19493;48.042;7.584;2023-07-13T10:56:19;32.30;44.70
26505;DHT22;19493;48.042;7.584;2023-07-13T10:58:46;31.80;44.60
26505;DHT22;19493;48.042;7.584;2023-07-13T11:01:14;32.90;45.50
26505;DHT22;19493;48.042;7.584;2023-07-13T11:06:12;36.10;40.90
26505;DHT22;19493;48.042;7.584;2023-07-13T11:09:00;36.10;39.80
26505;DHT22;19493;48.042;7.584;2023-07-13T11:11:34;36.60;40.10
26505;DHT22;19493;48.042;7.584;2023-07-13T11:14:03;36.30;40.30
26505;DHT22;19493;48.042;7.584;2023-07-13T11:16:37;35.80;41.10
26505;DHT22;19493;48.042;7.584;2023-07-13T11:21:32;33.70;42.50
26505;DHT22;19493;48.042;7.584;2023-07-13T11:24:15;33.10;42.90
26505;DHT22;19493;48.042;7.584;2023-07-13T11:31:59;32.50;46.70
26505;DHT22;19493;48.042;7.584;2023-07-13T11:34:35;33.90;46.00
26505;DHT22;19493;48.042;7.584;2023-07-13T11:37:02;35.10;43.30
26505;DHT22;19493;48.042;7.584;2023-07-13T11:39:36;35.70;41.70
26505;DHT22;19493;48.042;7.584;2023-07-13T11:42:06;36.30;40.50
26505;DHT22;19493;48.042;7.584;2023-07-13T11:44:34;35.80;41.00
26505;DHT22;19493;48.042;7.584;2023-07-13T11:47:09;34.40;41.60
26505;DHT22;19493;48.042;7.584;2023-07-13T11:49:43;33.80;43.30
26505;DHT22;19493;48.042;7.584;2023-07-13T11:52:18;32.90;44.20
26505;DHT22;19493;48.042;7.584;2023-07-13T11:54:54;32.10;44.80
26505;DHT22;19493;48.042;7.584;2023-07-13T11:57:32;31.10;46.30
26505;DHT22;19493;48.042;7.584;2023-07-13T12:00:02;31.00;48.10
26505;DHT22;19493;48.042;7.584;2023-07-13T12:02:39;30.50;47.80
26505;DHT22;19493;48.042;7.584;2023-07-13T12:05:09;29.80;48.60
26505;DHT22;19493;48.042;7.584;2023-07-13T12:07:35;29.40;49.70
26505;DHT22;19493;48.042;7.584;2023-07-13T12:10:17;29.10;50.10
26505;DHT22;19493;48.042;7.584;2023-07-13T12:12:53;28.90;51.40
26505;DHT22;19493;48.042;7.584;2023-07-13T12:15:22;29.00;51.90
26505;DHT22;19493;48.042;7.584;2023-07-13T12:17:48;29.50;51.50
26505;DHT22;19493;48.042;7.584;2023-07-13T12:20:40;31.10;51.90
26505;DHT22;19493;48.042;7.584;2023-07-13T12:23:07;32.30;48.40
26505;DHT22;19493;48.042;7.584;2023-07-13T12:25:40;31.90;47.60
26505;DHT22;19493;48.042;7.584;2023-07-13T12:31:31;35.10;45.20
26505;DHT22;19493;48.042;7.584;2023-07-13T12:34:08;36.60;43.10
26505;DHT22;19493;48.042;7.584;2023-07-13T12:36:36;37.50;40.50
26505;DHT22;19493;48.042;7.584;2023-07-13T12:39:18;38.80;39.60
26505;DHT22;19493;48.042;7.584;2023-07-13T12:41:45;39.60;39.10
26505;DHT22;19493;48.042;7.584;2023-07-13T12:44:30;40.40;37.10
26505;DHT22;19493;48.042;7.584;2023-07-13T12:47:02;40.00;36.70
26505;DHT22;19493;48.042;7.584;2023-07-13T12:49:31;38.20;38.70
26505;DHT22;19493;48.042;7.584;2023-07-13T12:52:03;37.00;38.00
26505;DHT22;19493;48.042;7.584;2023-07-13T12:54:30;36.00;39.80
26505;DHT22;19493;48.042;7.584;2023-07-13T12:56:58;34.90;40.20
26505;DHT22;19493;48.042;7.584;2023-07-13T12:59:29;33.80;42.60
26505;DHT22;19493;48.042;7.584;2023-07-13T13:01:55;33.20;44.60
26505;DHT22;19493;48.042;7.584;2023-07-13T13:04:20;32.70;44.60
26505;DHT22;19493;48.042;7.584;2023-07-13T13:06:47;32.20;44.60
26505;DHT22;19493;48.042;7.584;2023-07-13T13:09:15;31.50;45.50
26505;DHT22;19493;48.042;7.584;2023-07-13T13:11:42;30.80;46.80
26505;DHT22;19493;48.042;7.584;2023-07-13T13:14:08;30.20;49.20
26505;DHT22;19493;48.042;7.584;2023-07-13T13:16:37;29.70;51.20
26505;DHT22;19493;48.042;7.584;2023-07-13T13:19:25;29.40;49.90
26505;DHT22;19493;48.042;7.584;2023-07-13T13:21:53;29.00;52.40
26505;DHT22;19493;48.042;7.584;2023-07-13T13:24:21;28.80;50.80
26505;DHT22;19493;48.042;7.584;2023-07-13T13:26:48;28.60;53.00
26505;DHT22;19493;48.042;7.584;2023-07-13T13:31:41;28.40;52.80
26505;DHT22;19493;48.042;7.584;2023-07-13T13:34:12;28.50;53.80
26505;DHT22;19493;48.042;7.584;2023-07-13T13:36:39;28.80;53.30
26505;DHT22;19493;48.042;7.584;2023-07-13T13:39:27;29.10;54.70
26505;DHT22;19493;48.042;7.584;2023-07-13T13:41:55;30.20;53.40
26505;DHT22;19493;48.042;7.584;2023-07-13T13:44:21;31.60;50.40
26505;DHT22;19493;48.042;7.584;2023-07-13T13:46:55;32.20;49.40
26505;DHT22;19493;48.042;7.584;2023-07-13T13:49:23;31.90;48.60
26505;DHT22;19493;48.042;7.584;2023-07-13T13:51:50;31.20;49.70
26505;DHT22;19493;48.042;7.584;2023-07-13T13:54:17;30.60;50.50
26505;DHT22;19493;48.042;7.584;2023-07-13T13:56:45;29.80;52.20
26505;DHT22;19493;48.042;7.584;2023-07-13T13:59:12;29.30;53.10
26505;DHT22;19493;48.042;7.584;2023-07-13T14:01:38;29.00;53.70
26505;DHT22;19493;48.042;7.584;2023-07-13T14:04:05;28.60;55.60
26505;DHT22;19493;48.042;7.584;2023-07-13T14:06:31;28.60;57.40
26505;DHT22;19493;48.042;7.584;2023-07-13T14:08:57;28.60;55.50
26505;DHT22;19493;48.042;7.584;2023-07-13T14:11:22;28.70;55.60
26505;DHT22;19493;48.042;7.584;2023-07-13T14:13:56;28.90;55.30
26505;DHT22;19493;48.042;7.584;2023-07-13T14:16:27;30.40;54.20
26505;DHT22;19493;48.042;7.584;2023-07-13T14:18:55;34.10;48.60
26505;DHT22;19493;48.042;7.584;2023-07-13T14:21:23;37.20;44.90
26505;DHT22;19493;48.042;7.584;2023-07-13T14:23:49;38.90;40.80
26505;DHT22;19493;48.042;7.584;2023-07-13T14:26:26;40.40;38.50
26505;DHT22;19493;48.042;7.584;2023-07-13T14:28:55;41.60;37.30
26505;DHT22;19493;48.042;7.584;2023-07-13T14:31:22;41.20;36.80
26505;DHT22;19493;48.042;7.584;2023-07-13T14:33:48;40.80;34.30
26505;DHT22;19493;48.042;7.584;2023-07-13T14:36:40;39.90;35.00
26505;DHT22;19493;48.042;7.584;2023-07-13T14:39:14;40.50;36.20
26505;DHT22;19493;48.042;7.584;2023-07-13T14:41:40;41.30;35.40
26505;DHT22;19493;48.042;7.584;2023-07-13T14:44:12;42.00;33.80
26505;DHT22;19493;48.042;7.584;2023-07-13T14:46:38;42.90;32.40
26505;DHT22;19493;48.042;7.584;2023-07-13T14:51:47;42.80;31.50
26505;DHT22;19493;48.042;7.584;2023-07-13T14:54:13;41.40;31.80
26505;DHT22;19493;48.042;7.584;2023-07-13T14:56:39;38.60;34.50
26505;DHT22;19493;48.042;7.584;2023-07-13T14:59:04;36.00;37.10
26505;DHT22;19493;48.042;7.584;2023-07-13T15:01:30;34.10;38.60
26505;DHT22;19493;48.042;7.584;2023-07-13T15:03:57;32.90;39.80
26505;DHT22;19493;48.042;7.584;2023-07-13T15:06:23;33.40;40.60
26505;DHT22;19493;48.042;7.584;2023-07-13T15:08:48;35.00;38.50
26505;DHT22;19493;48.042;7.584;2023-07-13T15:11:15;36.60;37.00
26505;DHT22;19493;48.042;7.584;2023-07-13T15:13:41;37.40;34.90
26505;DHT22;19493;48.042;7.584;2023-07-13T15:16:33;38.30;35.00
26505;DHT22;19493;48.042;7.584;2023-07-13T15:18:59;38.60;32.90
26505;DHT22;19493;48.042;7.584;2023-07-13T15:21:25;38.70;33.50
26505;DHT22;19493;48.042;7.584;2023-07-13T15:23:53;37.50;33.00
26505;DHT22;19493;48.042;7.584;2023-07-13T15:26:19;35.60;37.20
26505;DHT22;19493;48.042;7.584;2023-07-13T15:28:46;34.40;37.60
26505;DHT22;19493;48.042;7.584;2023-07-13T15:31:22;34.80;36.90
26505;DHT22;19493;48.042;7.584;2023-07-13T15:33:49;35.60;37.30
26505;DHT22;19493;48.042;7.584;2023-07-13T15:36:16;36.20;37.30
26505;DHT22;19493;48.042;7.584;2023-07-13T15:38:43;36.80;34.60
26505;DHT22;19493;48.042;7.584;2023-07-13T15:41:21;37.20;35.10
26505;DHT22;19493;48.042;7.584;2023-07-13T15:43:49;37.40;33.20
26505;DHT22;19493;48.042;7.584;2023-07-13T15:46:20;37.30;33.20
26505;DHT22;19493;48.042;7.584;2023-07-13T15:48:48;37.70;34.00
26505;DHT22;19493;48.042;7.584;2023-07-13T15:51:24;37.60;33.90
26505;DHT22;19493;48.042;7.584;2023-07-13T15:53:53;37.40;33.30
26505;DHT22;19493;48.042;7.584;2023-07-13T15:56:23;37.40;32.70
26505;DHT22;19493;48.042;7.584;2023-07-13T15:58:50;37.40;32.70
26505;DHT22;19493;48.042;7.584;2023-07-13T16:01:16;37.40;34.10
26505;DHT22;19493;48.042;7.584;2023-07-13T16:03:42;37.60;33.70
26505;DHT22;19493;48.042;7.584;2023-07-13T16:06:31;37.10;33.30
26505;DHT22;19493;48.042;7.584;2023-07-13T16:08:58;36.80;35.30
26505;DHT22;19493;48.042;7.584;2023-07-13T16:11:27;36.40;35.20
26505;DHT22;19493;48.042;7.584;2023-07-13T16:13:53;36.20;35.30
26505;DHT22;19493;48.042;7.584;2023-07-13T16:16:28;36.20;35.40